Flight Track Log - Related Links

Times and Time Zones

All times are in EDT time to prevent confusion due to time zone crossing. See the XOJ756 flight status page for this flight to view local times or setup timezone preferences in your user account.

Time Position Orientation Groundspeed Altitude Reporting Facility
EDT Latitude Longitude Course Direction KTS MPH feet Rate Location/Type
Sun 06:06:38 PM 42.5833 -70.8167 91° East 244 281 3,000  Level KA90
Sun 06:07:39 PM 42.6500 -70.8333 350° North 269 310 5,600 4,000 Climbing KA90
Sun 06:08:56 PM 42.6658 -70.9492 281° West 288 331 12,200 3,679 Climbing Boston Center
Sun 06:09:56 PM 42.7231 -71.0328 313° West 294 338 14,000 900 Climbing Boston Center
Sun 06:10:56 PM 42.7697 -71.1081 310° West 287 330 14,000 1,050 Level Boston Center
Sun 06:11:56 PM 42.7797 -71.2464 276° West 309 356 16,100 2,300 Climbing Boston Center
Sun 06:12:56 PM 42.7892 -71.3622 276° West 342 394 18,600 2,400 Climbing Boston Center
Sun 06:13:56 PM 42.8050 -71.4950 279° West 353 406 20,900 2,150 Climbing Boston Center
Sun 06:14:56 PM 42.8164 -71.6392 276° West 353 406 22,900 1,950 Climbing Boston Center
Sun 06:15:56 PM 42.8236 -71.7747 274° West 353 406 24,800 1,900 Climbing Boston Center
Sun 06:16:56 PM 42.8286 -71.9136 273° West 353 406 26,700 1,700 Climbing Boston Center
Sun 06:17:56 PM 42.8333 -72.0550 273° West 365 420 28,200 1,500 Climbing Boston Center
Sun 06:18:56 PM 42.8400 -72.2050 274° West 387 445 29,700 1,400 Climbing Boston Center
Sun 06:19:56 PM 42.8506 -72.3381 276° West 393 452 31,000 1,400 Climbing Boston Center
Sun 06:20:56 PM 42.8547 -72.4883 272° West 400 460 32,500 1,444 Climbing Boston Center
Sun 06:22:09 PM 42.8525 -72.6667 269° West 405 466 34,200 1,500 Climbing Boston Center
Sun 06:23:08 PM 42.8561 -72.8167 272° West 399 459 35,800 1,664 Climbing Boston Center
Sun 06:24:08 PM 42.8639 -72.9697 274° West 405 466 37,500 1,950 Climbing Boston Center
Sun 06:25:08 PM 42.8672 -73.1283 272° West 417 480 39,700 1,950 Climbing Boston Center
Sun 06:26:08 PM 42.8706 -73.2758 272° West 417 480 41,400 1,550 Climbing Boston Center
Sun 06:27:08 PM 42.8692 -73.4317 269° West 394 453 42,800 800 Climbing Boston Center
Sun 06:28:08 PM 42.8719 -73.5847 271° West 387 445 43,000 100 Climbing Boston Center
Sun 06:29:08 PM 42.8764 -73.7433 272° West 405 466 43,000  Level Boston Center
Sun 06:30:08 PM 42.8786 -73.9050 271° West 424 488 43,000  Level Boston Center
Sun 06:31:08 PM 42.8806 -74.0694 271° West 429 494 43,000  Level Boston Center
Sun 06:32:08 PM 42.8844 -74.2367 272° West 435 501 43,000 -50 Level Boston Center
Sun 06:33:08 PM 42.8858 -74.3981 271° West 442 509 42,900  Descending Boston Center
Sun 06:34:08 PM 42.8897 -74.5342 272° West 442 509 43,000 50 Climbing Boston Center
Sun 06:35:08 PM 42.8903 -74.7131 270° West 437 503 43,000  Level Boston Center
Sun 06:36:08 PM 42.8911 -74.8744 270° West 437 503 43,000  Level Boston Center
Sun 06:37:08 PM 42.8939 -75.0361 271° West 437 503 43,000  Level Boston Center
Sun 06:38:08 PM 42.8942 -75.1978 270° West 437 503 43,000  Level Boston Center
Sun 06:39:08 PM 42.8942 -75.3650 270° West 437 503 43,000  Level Boston Center
Sun 06:40:08 PM 42.8942 -75.5239 270° West 437 503 43,000  Level Boston Center
Sun 06:41:08 PM 42.8961 -75.6856 271° West 437 503 43,000  Level Boston Center
Sun 06:43:08 PM 42.8972 -76.0139 270° West 428 493 43,000  Level Cleveland Center
Sun 06:44:08 PM 42.8953 -76.1786 269° West 428 493 43,000  Level Cleveland Center
Sun 06:45:08 PM 42.8953 -76.3431 270° West 433 498 43,000  Level Cleveland Center
Sun 06:46:08 PM 42.8947 -76.5047 270° West 438 504 43,000  Level Cleveland Center
Sun 06:47:08 PM 42.8961 -76.6692 271° West 438 504 43,000  Level Cleveland Center
Sun 06:48:08 PM 42.8961 -76.8506 270° West 438 504 43,000 -100 Level Cleveland Center
Sun 06:49:08 PM 42.8969 -77.0150 270° West 438 504 42,800 -700 Descending Cleveland Center
Sun 06:50:08 PM 42.9019 -77.1733 273° West 438 504 41,600 -1,350 Descending Cleveland Center
Sun 06:51:08 PM 42.9042 -77.3292 271° West 432 497 40,100 -2,150 Descending Cleveland Center
Sun 06:52:08 PM 42.8750 -77.4753 255° West 420 483 37,300 -2,550 Descending Cleveland Center
Sun 06:53:08 PM 42.8267 -77.6192 245° Southwest 407 468 35,000 -1,150 Descending Cleveland Center
Sun 06:54:08 PM 42.7800 -77.7544 245° Southwest 422 486 35,000  Level Cleveland Center
Sun 06:55:08 PM 42.7272 -77.9067 245° Southwest 436 502 35,000  Level Cleveland Center
Sun 06:56:08 PM 42.6722 -78.0586 244° Southwest 443 510 35,000  Level Cleveland Center
Sun 06:57:08 PM 42.6172 -78.2131 242° Southwest 453 521 35,000  Level Cleveland Center
Sun 06:58:00 PM 42.5794 -78.2919 242° Southwest  Level FlightAware Approximate
Sun 06:58:08 PM 42.5639 -78.3644 244° Southwest 453 521 35,000  Level Cleveland Center
Sun 06:59:08 PM 42.5106 -78.5186 245° Southwest 453 521 35,000  Level Cleveland Center
Sun 07:00:08 PM 42.4547 -78.6694 243° Southwest 453 521 35,000 -500 Level Cleveland Center
Sun 07:01:08 PM 42.3989 -78.8231 244° Southwest 453 521 34,000 -500 Descending Cleveland Center
Sun 07:02:08 PM 42.3367 -78.9906 248° West 453 521 34,000 -200 Level Cleveland Center
Sun 07:03:00 PM 42.2770 -79.0359 246° West  Level FlightAware Approximate
Sun 07:03:08 PM 42.2803 -79.1406 243° Southwest 453 521 33,600  Level Cleveland Center
Sun 07:04:08 PM 42.2278 -79.2906 245° Southwest 453 521 30,900 -2,600 Descending Cleveland Center
Sun 07:05:08 PM 42.1711 -79.4400 243° Southwest 453 521 28,400 -1,850 Descending Cleveland Center
Sun 07:06:08 PM 42.1161 -79.5922 244° Southwest 453 521 27,200 -1,200 Descending Cleveland Center
Sun 07:07:08 PM 42.0611 -79.7386 243° Southwest 448 516 26,000 -600 Descending Cleveland Center
Sun 07:08:08 PM 42.0058 -79.8847 243° Southwest 448 516 26,000  Level Cleveland Center
Sun 07:09:08 PM 41.9525 -80.0303 244° Southwest 448 516 26,000 -150 Level Cleveland Center
Sun 07:10:00 PM 41.9628 -79.9211 248° West  Level FlightAware Approximate
Sun 07:10:08 PM 41.8967 -80.1758 243° Southwest 448 516 25,700  Level Cleveland Center
Sun 07:11:08 PM 41.8408 -80.3239 243° Southwest 448 516 24,600 -1,100 Descending Cleveland Center
Sun 07:12:08 PM 41.7847 -80.4717 243° Southwest 448 516 23,500 -1,900 Descending Cleveland Center
Sun 07:13:08 PM 41.7306 -80.6139 243° Southwest 448 516 20,800 -3,150 Descending Cleveland Center
Sun 07:14:08 PM 41.6783 -80.7444 242° Southwest 427 491 17,200 -3,561 Descending Cleveland Center
Sun 07:15:11 PM 41.6261 -80.8747 242° Southwest 371 427 13,500 -2,679 Descending Cleveland Center
Sun 07:16:00 PM 41.5944 -80.9664 245° Southwest 325 374 12,200 -1,486 Descending Cleveland Center
Sun 07:17:00 PM 41.5544 -81.0658 242° Southwest 285 328 10,800 -1,147 Descending Cleveland Center
Sun 07:17:08 PM 41.5544 -81.0658 242° Southwest 322 371 10,900 -706 Climbing Cleveland Center
Sun 07:18:08 PM 41.5208 -81.1656 246° West 300 345 10,000 -1,000 Descending Cleveland Center
Sun 07:19:02 PM 41.5014 -81.2681 256° West 277 319 9,000 -522 Descending Cleveland Center
Sun 07:20:03 PM 41.4883 -81.3675 260° West 282 325 9,000  Level Cleveland Center
Sun 07:20:08 PM 41.4883 -81.3675 260° West 284 327 9,000 -900 Level Cleveland Center
Sun 07:21:03 PM 41.4750 -81.4700 260° West 276 318 8,100 -1,000 Descending Cleveland Center
Sun 07:22:08 PM 41.4617 -81.5667 260° West 277 319 7,000 -541 Descending Cleveland Center
Sun 07:23:05 PM 41.4461 -81.6689 259° West 306 352 7,000  Level Cleveland Center
Sun 07:24:06 PM 41.3953 -81.7622 234° Southwest 282 325 7,000 -689 Level Cleveland Center
Sun 07:25:07 PM 41.3464 -81.8389 230° Southwest 272 313 5,600 -1,934 Descending Cleveland Center
Sun 07:26:07 PM 41.3017 -81.9181 233° Southwest 265 305 3,100 -1,289 Descending Cleveland Center
Sun 07:27:08 PM 41.3325 -81.9686 309° West 202 232 3,000 -590 Descending Cleveland Center
Sun 07:28:09 PM 41.3642 -81.9250 46° Northeast 144 166 1,900 -934 Descending Cleveland Center
Sun 07:29:10 PM 41.3897 -81.8922 44° Northeast 137 158 1,100 -787 Descending Cleveland Center

Login

Don't have an account? Register now (free) for customized features, flight alerts, and more!